Time;durP1;ratioP1;P1;durP2;ratioP2;P2;SDS_P1;SDS_P2;PMS_P1;PMS_P2;Temp;Humidity;BMP_temperature;BMP_pressure;BME280_temperature;BME280_humidity;BME280_pressure;Samples;Min_cycle;Max_cycle;Signal;HPM_P1;HPM_P2
2023/07/14 00:00:18;;;;;;;2.78;1.40;;;;;;;20.55;100.00;97885.56;5137949;28;20146;-61
2023/07/14 00:02:47;;;;;;;3.13;1.77;;;;;;;20.59;100.00;97889.00;5137730;28;20134;-61
2023/07/14 00:05:18;;;;;;;5.05;1.98;;;;;;;20.40;100.00;97873.47;5137811;27;20420;-61
2023/07/14 00:07:46;;;;;;;1.85;1.40;;;;;;;20.40;100.00;97865.13;5137489;28;20134;-61
2023/07/14 00:10:18;;;;;;;4.63;1.80;;;;;;;20.51;100.00;97882.16;5137905;28;20149;-61
2023/07/14 00:12:44;;;;;;;5.47;2.22;;;;;;;20.42;100.00;97879.34;5137417;28;20061;-61
2023/07/14 00:15:11;;;;;;;4.70;2.00;;;;;;;20.48;100.00;97888.63;5137878;27;20142;-61
2023/07/14 00:17:37;;;;;;;6.40;1.90;;;;;;;20.52;100.00;97902.41;5137544;28;20065;-61
2023/07/14 00:20:19;;;;;;;3.33;1.90;;;;;;;20.54;100.00;97903.50;5137251;28;20400;-61
2023/07/14 00:22:45;;;;;;;4.95;1.90;;;;;;;20.53;100.00;97910.31;5136999;27;20392;-61
2023/07/14 00:25:12;;;;;;;10.93;1.85;;;;;;;20.55;100.00;97913.41;5137440;28;20088;-61
2023/07/14 00:27:38;;;;;;;5.75;1.60;;;;;;;20.31;100.00;97904.84;5137557;27;20065;-61
2023/07/14 00:30:13;;;;;;;6.03;1.80;;;;;;;20.31;100.00;97881.81;5137177;28;20151;-61
2023/07/14 00:32:39;;;;;;;6.43;1.83;;;;;;;20.22;100.00;97880.53;5137629;28;20370;-61
2023/07/14 00:35:18;;;;;;;3.83;1.73;;;;;;;20.07;100.00;97859.34;5137061;28;20062;-61
2023/07/14 00:37:44;;;;;;;3.85;1.75;;;;;;;20.27;100.00;97868.03;5137439;28;20137;-61
2023/07/14 00:40:13;;;;;;;4.80;2.22;;;;;;;20.34;100.00;97886.47;5137280;28;20095;-61
2023/07/14 00:42:39;;;;;;;3.40;1.50;;;;;;;20.28;100.00;97879.94;5137243;28;20134;-61
2023/07/14 00:45:10;;;;;;;4.03;1.40;;;;;;;20.12;100.00;97861.50;5137116;28;20047;-60
2023/07/14 00:47:36;;;;;;;9.02;1.70;;;;;;;20.17;100.00;97861.69;5137128;28;20142;-61
2023/07/14 00:50:03;;;;;;;4.82;1.60;;;;;;;19.92;100.00;97837.66;5137435;27;20085;-61
2023/07/14 00:52:34;;;;;;;6.25;2.00;;;;;;;20.03;100.00;97836.47;5136963;28;20482;-61
2023/07/14 00:55:00;;;;;;;5.13;1.67;;;;;;;19.97;100.00;97842.66;5137251;27;20111;-61
2023/07/14 00:57:28;;;;;;;3.17;1.90;;;;;;;19.97;100.00;97825.94;5136818;27;20055;-61
2023/07/14 00:59:58;;;;;;;6.45;1.75;;;;;;;20.04;100.00;97838.03;5137266;27;20325;-62
2023/07/14 01:02:25;;;;;;;5.40;1.90;;;;;;;19.93;100.00;97830.91;5136788;28;20130;-62
2023/07/14 01:04:54;;;;;;;2.45;1.80;;;;;;;19.99;100.00;97861.63;5137186;28;20058;-61
2023/07/14 01:07:26;;;;;;;7.35;2.20;;;;;;;19.85;100.00;97831.63;5136968;28;20137;-61
2023/07/14 01:09:57;;;;;;;4.18;1.40;;;;;;;19.71;100.00;97833.00;5136847;28;20137;-61
2023/07/14 01:12:24;;;;;;;2.90;2.00;;;;;;;19.98;100.00;97849.75;5136842;27;20047;-61
2023/07/14 01:14:53;;;;;;;8.23;2.03;;;;;;;19.96;100.00;97843.13;5136731;28;20142;-61
2023/07/14 01:17:21;;;;;;;2.90;1.90;;;;;;;20.07;100.00;97854.56;5136922;28;20392;-61
2023/07/14 01:19:50;;;;;;;5.47;1.52;;;;;;;19.90;100.00;97845.72;5136637;28;20061;-61
2023/07/14 01:22:23;;;;;;;4.38;1.52;;;;;;;19.99;100.00;97864.41;5137027;28;20134;-61
2023/07/14 01:24:59;;;;;;;4.07;1.63;;;;;;;19.92;100.00;97851.56;5136450;28;20142;-61
2023/07/14 01:27:26;;;;;;;3.33;1.10;;;;;;;19.82;100.00;97858.34;5136685;27;20193;-61
2023/07/14 01:29:53;;;;;;;5.10;1.73;;;;;;;19.88;100.00;97864.09;5136521;28;20384;-61
2023/07/14 01:32:22;;;;;;;4.15;1.60;;;;;;;19.98;100.00;97877.56;5136298;28;20420;-61
2023/07/14 01:34:49;;;;;;;2.90;1.80;;;;;;;19.75;100.00;97848.28;5137540;27;20043;-61
2023/07/14 01:37:19;;;;;;;6.90;1.70;;;;;;;19.89;100.00;97849.75;5139852;28;20051;-61
2023/07/14 01:39:45;;;;;;;3.20;1.33;;;;;;;19.94;100.00;97881.72;5140196;28;20057;-61
2023/07/14 01:42:12;;;;;;;2.53;1.40;;;;;;;19.71;100.00;97860.81;5139880;28;20050;-61
2023/07/14 01:44:39;;;;;;;4.95;1.60;;;;;;;19.78;100.00;97854.19;5139768;28;20058;-61
2023/07/14 01:47:07;;;;;;;3.10;1.40;;;;;;;19.67;100.00;97862.94;5139770;28;20058;-61
2023/07/14 01:49:41;;;;;;;3.22;1.75;;;;;;;19.72;100.00;97840.09;5140146;28;20468;-61
2023/07/14 01:52:15;;;;;;;3.70;2.10;;;;;;;19.70;100.00;97854.47;5139568;28;20333;-61
2023/07/14 01:54:45;;;;;;;4.55;1.60;;;;;;;19.79;100.00;97873.16;5139838;28;20165;-61
2023/07/14 01:57:15;;;;;;;4.80;1.77;;;;;;;19.67;100.00;97872.06;5139535;28;20145;-61
2023/07/14 01:59:46;;;;;;;3.58;1.40;;;;;;;19.57;100.00;97866.91;5139615;28;20043;-61
2023/07/14 02:02:17;;;;;;;3.10;1.35;;;;;;;19.64;100.00;97856.28;5139867;28;20054;-61
2023/07/14 02:04:46;;;;;;;3.30;1.70;;;;;;;19.77;100.00;97869.31;5139555;28;20428;-61
2023/07/14 02:07:13;;;;;;;6.20;1.67;;;;;;;19.84;100.00;97891.28;5139764;27;20080;-61
2023/07/14 02:09:41;;;;;;;4.35;1.60;;;;;;;19.77;100.00;97891.56;5139334;28;20093;-61
2023/07/14 02:12:14;;;;;;;4.70;1.60;;;;;;;19.82;100.00;97897.28;5139769;28;20058;-61
2023/07/14 02:14:48;;;;;;;3.67;1.60;;;;;;;19.89;100.00;97905.38;5139511;28;20053;-61
2023/07/14 02:17:23;;;;;;;2.15;1.23;;;;;;;19.85;100.00;97906.72;5139415;28;20134;-62
2023/07/14 02:19:51;;;;;;;5.82;1.95;;;;;;;19.95;100.00;97919.44;5139313;28;20134;-62
2023/07/14 02:22:17;;;;;;;3.15;1.35;;;;;;;19.85;100.00;97904.72;5139153;28;20051;-62
2023/07/14 02:24:45;;;;;;;4.43;1.67;;;;;;;19.87;100.00;97902.25;5139410;28;20472;-61
2023/07/14 02:27:12;;;;;;;6.20;2.28;;;;;;;19.70;100.00;97909.31;5138982;28;20430;-62
2023/07/14 02:29:38;;;;;;;2.92;1.60;;;;;;;19.83;100.00;97907.19;5139503;27;20529;-61
2023/07/14 02:32:16;;;;;;;3.60;1.48;;;;;;;19.79;100.00;97914.88;5139050;28;20146;-61
2023/07/14 02:34:48;;;;;;;5.32;1.50;;;;;;;19.79;100.00;97928.78;5139448;28;20194;-61
2023/07/14 02:38:03;;;;;;;3.90;1.40;;;;;;;19.77;100.00;97906.25;5139030;28;20047;-61
2023/07/14 02:40:32;;;;;;;3.83;1.85;;;;;;;19.63;100.00;97921.47;5056251;28;20057;-61
2023/07/14 02:42:58;;;;;;;4.40;1.77;;;;;;;19.76;100.00;97924.16;5120882;28;20047;-61
2023/07/14 02:45:26;;;;;;;5.78;1.40;;;;;;;19.66;100.00;97936.44;5138555;27;20310;-61
2023/07/14 02:47:57;;;;;;;2.20;1.42;;;;;;;19.87;100.00;97951.56;5139092;28;20111;-61
2023/07/14 02:50:23;;;;;;;2.20;1.60;;;;;;;19.88;100.00;97958.66;5138672;28;20047;-62
2023/07/14 02:52:49;;;;;;;3.58;2.05;;;;;;;19.89;100.00;97954.63;5139118;28;20139;-62
2023/07/14 02:55:15;;;;;;;2.10;1.50;;;;;;;19.90;100.00;97967.31;5138596;28;20050;-62
2023/07/14 02:57:41;;;;;;;3.70;1.65;;;;;;;19.58;100.00;97935.94;5138454;28;20043;-61
2023/07/14 03:00:08;;;;;;;5.57;1.20;;;;;;;19.77;100.00;97942.38;5138853;27;20138;-61
2023/07/14 03:02:34;;;;;;;3.53;1.55;;;;;;;19.87;100.00;97932.09;5138672;28;20138;-61
2023/07/14 03:05:01;;;;;;;4.05;1.25;;;;;;;19.75;100.00;97917.81;5138865;27;20043;-62
2023/07/14 03:07:27;;;;;;;1.67;1.30;;;;;;;19.79;100.00;97911.34;5138465;28;20089;-62
2023/07/14 03:09:53;;;;;;;1.70;1.58;;;;;;;19.82;100.00;97927.09;5138669;28;20050;-61
2023/07/14 03:12:20;;;;;;;5.90;1.98;;;;;;;19.83;100.00;97934.22;5138404;27;20082;-62
2023/07/14 03:14:46;;;;;;;2.13;1.52;;;;;;;19.80;100.00;97951.84;5138778;27;20107;-61
2023/07/14 03:17:12;;;;;;;2.53;1.42;;;;;;;19.78;100.00;97945.94;5138145;28;20417;-62
2023/07/14 03:19:38;;;;;;;5.75;1.85;;;;;;;20.02;100.00;97979.56;5138717;28;20127;-61
2023/07/14 03:22:05;;;;;;;5.68;1.60;;;;;;;20.13;100.00;98000.19;5138129;27;20047;-62
2023/07/14 03:24:31;;;;;;;3.65;1.30;;;;;;;19.80;100.00;97974.84;5138383;28;20074;-61
2023/07/14 03:26:57;;;;;;;7.85;1.65;;;;;;;19.99;100.00;97986.81;5138361;27;20388;-62
2023/07/14 03:29:23;;;;;;;6.07;1.48;;;;;;;20.01;100.00;97989.16;5138279;28;20165;-61
2023/07/14 03:31:48;;;;;;;4.40;1.77;;;;;;;19.89;100.00;97974.09;5138168;28;20490;-61
2023/07/14 03:34:16;;;;;;;6.18;2.10;;;;;;;20.00;100.00;97991.16;5138093;28;20054;-62
2023/07/14 03:36:42;;;;;;;4.07;1.48;;;;;;;20.02;100.00;97999.81;5138079;28;20432;-61
2023/07/14 03:39:24;;;;;;;5.85;1.80;;;;;;;20.09;100.00;98004.31;5137800;28;20133;-61
2023/07/14 03:41:51;;;;;;;5.50;2.00;;;;;;;19.91;100.00;97982.78;5138255;28;20047;-61
2023/07/14 03:44:17;;;;;;;4.60;1.70;;;;;;;19.82;100.00;97966.03;5137913;28;20047;-61
2023/07/14 03:46:42;;;;;;;6.32;1.77;;;;;;;19.94;100.00;97998.56;5137783;28;20151;-61
2023/07/14 03:49:08;;;;;;;1.50;1.40;;;;;;;20.03;100.00;97995.81;5137706;28;20329;-61
2023/07/14 03:51:35;;;;;;;5.95;1.80;;;;;;;20.01;100.00;98001.06;5137637;28;20150;-61
2023/07/14 03:54:00;;;;;;;2.72;1.33;;;;;;;19.95;100.00;98014.78;5137991;28;20097;-62
2023/07/14 03:56:27;;;;;;;5.03;1.75;;;;;;;19.88;100.00;98012.25;5137778;28;20051;-62
2023/07/14 03:58:53;;;;;;;5.28;1.70;;;;;;;19.75;100.00;97994.88;5137144;27;20360;-61
2023/07/14 04:01:19;;;;;;;10.52;1.67;;;;;;;19.99;100.00;98009.06;5137733;28;20107;-61
2023/07/14 04:03:47;;;;;;;3.08;1.73;;;;;;;19.87;100.00;98023.84;5138010;28;20047;-61
2023/07/14 04:06:14;;;;;;;3.25;1.23;;;;;;;20.12;100.00;98042.38;5137785;28;20070;-62
2023/07/14 04:08:43;;;;;;;2.17;1.40;;;;;;;20.14;100.00;98054.59;5137831;28;20057;-62
2023/07/14 04:11:11;;;;;;;2.05;1.15;;;;;;;20.38;100.00;98087.47;5137620;28;20141;-61
2023/07/14 04:13:37;;;;;;;3.00;1.75;;;;;;;20.42;100.00;98088.88;5137906;28;20073;-62
2023/07/14 04:16:04;;;;;;;2.72;1.52;;;;;;;20.52;100.00;98125.91;5137238;28;20123;-61
2023/07/14 04:18:30;;;;;;;4.35;1.38;;;;;;;20.47;100.00;98100.66;5137239;28;20404;-61
2023/07/14 04:21:00;;;;;;;1.67;1.25;;;;;;;20.33;100.00;98105.56;5137355;28;20071;-61
2023/07/14 04:23:25;;;;;;;3.63;1.55;;;;;;;20.34;100.00;98093.19;5137477;28;20059;-61
2023/07/14 04:25:52;;;;;;;3.83;1.42;;;;;;;20.63;100.00;98125.53;5137353;28;20082;-61
2023/07/14 04:28:18;;;;;;;2.13;1.42;;;;;;;20.53;100.00;98143.41;5137247;28;20146;-61
2023/07/14 04:30:52;;;;;;;2.15;1.63;;;;;;;20.52;100.00;98128.69;5137471;28;20054;-61
2023/07/14 04:33:18;;;;;;;2.97;1.30;;;;;;;20.71;100.00;98137.91;5137123;28;20048;-61
2023/07/14 04:35:44;;;;;;;5.60;1.70;;;;;;;20.94;100.00;98155.34;5137554;28;20047;-62
2023/07/14 04:38:10;;;;;;;3.97;1.65;;;;;;;20.82;100.00;98182.06;5137014;28;20057;-61
2023/07/14 04:40:39;;;;;;;1.95;1.15;;;;;;;20.71;100.00;98165.75;5137467;27;20377;-62
2023/07/14 04:43:05;;;;;;;3.72;1.30;;;;;;;20.93;100.00;98201.94;5136889;27;20142;-61
2023/07/14 04:45:36;;;;;;;2.45;1.45;;;;;;;21.32;100.00;98242.13;5136875;28;20058;-62
2023/07/14 04:48:02;;;;;;;5.68;1.52;;;;;;;21.54;100.00;98263.63;5137191;27;20067;-61
2023/07/14 04:50:28;;;;;;;7.22;1.45;;;;;;;21.72;100.00;98274.03;5136798;28;20072;-61
2023/07/14 04:52:56;;;;;;;2.75;1.23;;;;;;;21.88;100.00;98321.19;5137129;28;20081;-61
2023/07/14 04:55:22;;;;;;;4.78;1.20;;;;;;;21.97;100.00;98329.56;5136738;28;20153;-61
2023/07/14 04:57:49;;;;;;;5.80;1.50;;;;;;;21.72;100.00;98313.84;5137002;28;20062;-61
2023/07/14 05:00:17;;;;;;;6.53;1.50;;;;;;;21.58;100.00;98322.81;5136815;28;20339;-61
2023/07/14 05:02:43;;;;;;;3.33;1.42;;;;;;;21.32;100.00;98294.34;5136834;28;20092;-55
2023/07/14 05:05:12;;;;;;;6.65;1.55;;;;;;;21.55;100.00;98293.06;5136749;27;20108;-60
2023/07/14 05:07:38;;;;;;;3.80;1.42;;;;;;;21.60;100.00;98290.44;5136346;28;20051;-60
2023/07/14 05:10:05;;;;;;;7.75;1.30;;;;;;;21.63;100.00;98290.78;5139243;27;20393;-59
2023/07/14 05:12:31;;;;;;;4.55;1.23;;;;;;;21.44;100.00;98276.00;5140527;28;20046;-64
2023/07/14 05:15:02;;;;;;;4.05;1.50;;;;;;;21.49;100.00;98278.97;5140220;28;20327;-58
2023/07/14 05:17:28;;;;;;;4.60;1.60;;;;;;;21.27;100.00;98267.84;5140212;28;20062;-58
2023/07/14 05:19:54;;;;;;;3.30;1.38;;;;;;;21.35;100.00;98268.34;5140202;28;20058;-59
2023/07/14 05:22:21;;;;;;;4.07;1.50;;;;;;;21.25;100.00;98258.38;5140336;28;20116;-60
2023/07/14 05:24:47;;;;;;;8.38;2.22;;;;;;;21.18;100.00;98248.28;5140164;28;20134;-64
2023/07/14 05:27:13;;;;;;;4.40;1.85;;;;;;;21.30;100.00;98252.22;5140263;27;20082;-57
2023/07/14 05:29:39;;;;;;;5.15;1.27;;;;;;;21.03;100.00;98238.97;5139877;28;20119;-60
2023/07/14 05:32:05;;;;;;;6.85;1.77;;;;;;;21.26;100.00;98232.84;5140180;28;20409;-59
2023/07/14 05:34:31;;;;;;;4.20;1.60;;;;;;;21.66;100.00;98282.25;5139622;28;20129;-54
2023/07/14 05:36:58;;;;;;;3.42;1.50;;;;;;;21.71;100.00;98311.53;5139833;27;20047;-52
2023/07/14 05:39:25;;;;;;;6.70;1.88;;;;;;;22.07;100.00;98314.41;5139511;28;20058;-53
2023/07/14 05:41:51;;;;;;;3.25;1.60;;;;;;;23.09;100.00;98393.44;5139448;27;20465;-53
2023/07/14 05:44:17;;;;;;;4.00;2.00;;;;;;;24.75;100.00;98474.69;5139571;28;20055;-56
2023/07/14 05:46:43;;;;;;;7.32;1.73;;;;;;;25.67;100.00;98532.06;5139362;28;20047;-58
2023/07/14 05:49:09;;;;;;;4.13;1.73;;;;;;;26.37;100.00;98559.56;5139794;28;20051;-61
2023/07/14 05:51:35;;;;;;;4.18;1.88;;;;;;;26.19;100.00;98561.34;5139508;28;20081;-60
2023/07/14 05:54:01;;;;;;;4.25;1.73;;;;;;;25.95;100.00;98569.09;5139172;28;20047;-60
2023/07/14 05:56:27;;;;;;;8.30;2.22;;;;;;;25.56;100.00;98555.09;5139476;28;20088;-61
2023/07/14 05:58:55;;;;;;;7.85;2.13;;;;;;;25.86;100.00;98552.31;5139515;28;20061;-59
2023/07/14 06:01:21;;;;;;;8.48;1.85;;;;;;;26.13;100.00;98557.66;5139127;27;20059;-62
2023/07/14 06:03:47;;;;;;;8.25;2.30;;;;;;;25.53;100.00;98551.22;5139418;28;20477;-60
2023/07/14 06:06:13;;;;;;;6.88;2.03;;;;;;;25.44;100.00;98553.34;5138798;28;20085;-58
2023/07/14 06:08:39;;;;;;;10.90;2.20;;;;;;;25.55;100.00;98526.25;5139386;28;20118;-58
2023/07/14 06:11:05;;;;;;;4.65;2.15;;;;;;;25.16;100.00;98539.53;5139149;27;20047;-59
2023/07/14 06:13:33;;;;;;;5.93;1.90;;;;;;;26.08;100.00;98543.50;5138883;27;20055;-60
2023/07/14 06:15:59;;;;;;;8.57;2.08;;;;;;;26.62;100.00;98553.31;5139228;28;20057;-59
2023/07/14 06:18:25;;;;;;;5.40;2.20;;;;;;;26.99;96.61;98566.84;5139051;28;20146;-59
2023/07/14 06:20:51;;;;;;;6.45;1.95;;;;;;;26.70;95.09;98570.56;5138657;27;20057;-58
2023/07/14 06:23:17;;;;;;;8.85;2.15;;;;;;;26.90;95.55;98578.25;5138839;28;20065;-58
2023/07/14 06:25:43;;;;;;;3.90;1.88;;;;;;;27.19;93.57;98577.34;5139065;27;20134;-54
2023/07/14 06:28:10;;;;;;;5.53;2.33;;;;;;;27.33;91.62;98575.75;5138714;28;20061;-59
2023/07/14 06:30:37;;;;;;;11.00;1.83;;;;;;;27.72;90.21;98578.22;5139223;28;20091;-59
2023/07/14 06:33:03;;;;;;;5.78;1.60;;;;;;;27.90;90.83;98581.50;5138789;28;20071;-60
2023/07/14 06:35:29;;;;;;;6.65;1.73;;;;;;;27.94;88.19;98592.53;5139109;28;20087;-62
2023/07/14 06:37:57;;;;;;;7.65;1.92;;;;;;;28.34;85.44;98588.03;5138417;27;20054;-62
2023/07/14 06:40:23;;;;;;;5.63;1.70;;;;;;;28.54;84.16;98584.34;5138690;28;20051;-60
2023/07/14 06:42:49;;;;;;;5.05;1.88;;;;;;;28.50;84.11;98586.63;5138695;27;20055;-63
2023/07/14 06:45:16;;;;;;;5.43;2.10;;;;;;;28.63;81.70;98597.50;5138610;27;20047;-62
2023/07/14 06:47:42;;;;;;;5.88;1.90;;;;;;;28.81;81.13;98586.56;5138659;28;20067;-57
2023/07/14 06:50:09;;;;;;;4.18;2.05;;;;;;;29.14;79.20;98588.06;5138485;27;20073;-60
2023/07/14 06:52:36;;;;;;;2.58;1.90;;;;;;;29.51;76.84;98596.41;5138464;28;20051;-58
2023/07/14 06:55:02;;;;;;;6.65;2.50;;;;;;;29.41;77.62;98583.81;5138324;28;20047;-55
2023/07/14 06:57:28;;;;;;;8.90;1.98;;;;;;;28.96;77.58;98580.00;5138480;28;20054;-62
2023/07/14 06:59:54;;;;;;;7.60;1.92;;;;;;;29.58;77.40;98580.25;5138230;28;20181;-60
2023/07/14 07:02:20;;;;;;;9.60;1.80;;;;;;;29.55;76.90;98588.47;5138702;28;20314;-59
2023/07/14 07:04:46;;;;;;;4.20;1.95;;;;;;;30.16;73.87;98583.47;5137829;28;20058;-57
2023/07/14 07:07:12;;;;;;;5.55;2.05;;;;;;;29.43;76.11;98581.25;5138254;27;20047;-62
2023/07/14 07:09:38;;;;;;;4.13;1.85;;;;;;;30.14;74.79;98583.97;5138253;28;20047;-58
2023/07/14 07:12:05;;;;;;;5.05;1.92;;;;;;;30.45;71.12;98590.66;5137994;28;20079;-59
2023/07/14 07:14:31;;;;;;;3.25;1.58;;;;;;;30.20;70.83;98587.59;5138168;28;20050;-58
2023/07/14 07:16:57;;;;;;;3.45;1.65;;;;;;;31.30;68.96;98589.22;5137441;28;20370;-59
2023/07/14 07:19:23;;;;;;;4.47;2.10;;;;;;;30.93;67.59;98596.03;5137950;28;20111;-58
2023/07/14 07:21:50;;;;;;;5.95;1.50;;;;;;;31.16;65.78;98587.47;5137705;28;20047;-56
2023/07/14 07:24:16;;;;;;;6.38;1.88;;;;;;;31.23;65.94;98586.94;5138150;28;20099;-58
2023/07/14 07:26:42;;;;;;;7.55;1.75;;;;;;;31.28;66.48;98586.13;5137667;27;20055;-60
2023/07/14 07:29:08;;;;;;;2.92;1.50;;;;;;;31.82;65.64;98594.13;5138014;28;20090;-59
2023/07/14 07:31:34;;;;;;;9.38;2.08;;;;;;;31.35;64.33;98585.59;5137420;27;20134;-59
2023/07/14 07:34:00;;;;;;;13.13;1.90;;;;;;;31.40;65.27;98586.88;5137413;27;20138;-54
2023/07/14 07:36:27;;;;;;;9.60;2.15;;;;;;;31.60;64.71;98588.56;5137413;27;20111;-60
2023/07/14 07:38:54;;;;;;;5.40;2.00;;;;;;;31.62;65.41;98586.75;5137748;28;20047;-60
2023/07/14 07:41:23;;;;;;;4.18;1.85;;;;;;;31.05;66.59;98585.44;5137447;28;20502;-58
2023/07/14 07:43:49;;;;;;;7.35;1.80;;;;;;;30.25;69.37;98586.06;5137183;28;20051;-59
2023/07/14 07:46:15;;;;;;;5.35;1.90;;;;;;;30.85;68.57;98578.03;5137508;28;20377;-55
2023/07/14 07:48:42;;;;;;;4.43;1.80;;;;;;;31.03;64.90;98576.69;5137303;27;20047;-51
2023/07/14 07:51:08;;;;;;;6.55;1.67;;;;;;;29.71;67.36;98587.00;5137606;28;20066;-57
2023/07/14 07:53:34;;;;;;;8.05;1.88;;;;;;;31.04;64.04;98594.44;5137359;28;20051;-57
2023/07/14 07:56:02;;;;;;;4.22;1.60;;;;;;;30.99;65.85;98593.19;5137744;28;20091;-58
2023/07/14 07:58:28;;;;;;;5.63;2.13;;;;;;;30.16;68.01;98600.44;5137220;27;20059;-58
2023/07/14 08:00:55;;;;;;;3.67;1.50;;;;;;;30.94;66.10;98600.38;5137140;28;20093;-58
2023/07/14 08:03:21;;;;;;;4.80;1.40;;;;;;;30.89;62.86;98595.53;5137137;27;20469;-56
2023/07/14 08:05:47;;;;;;;3.60;1.58;;;;;;;31.33;62.17;98598.75;5137516;28;20050;-59
2023/07/14 08:08:13;;;;;;;5.50;1.98;;;;;;;30.18;64.84;98601.47;5137474;28;20312;-58
2023/07/14 08:10:41;;;;;;;5.93;2.15;;;;;;;30.12;65.41;98597.06;5137338;27;20304;-57
2023/07/14 08:13:09;;;;;;;11.05;1.70;;;;;;;29.38;68.30;98598.94;5137507;28;20324;-58
2023/07/14 08:15:37;;;;;;;4.93;1.60;;;;;;;29.24;71.56;98602.72;5136864;28;20047;-59
2023/07/14 08:18:04;;;;;;;11.10;2.08;;;;;;;28.47;73.81;98591.22;5137290;28;20138;-54
2023/07/14 08:20:30;;;;;;;6.75;1.60;;;;;;;29.07;74.12;98583.66;5137226;27;20047;-59
2023/07/14 08:22:56;;;;;;;8.15;1.75;;;;;;;29.78;67.84;98600.63;5137503;28;20046;-56
2023/07/14 08:25:22;;;;;;;8.27;1.73;;;;;;;30.64;64.69;98597.34;5136943;28;20047;-54
2023/07/14 08:27:48;;;;;;;5.07;1.60;;;;;;;30.63;63.88;98607.13;5137546;27;20074;-58
2023/07/14 08:30:15;;;;;;;4.75;1.50;;;;;;;29.44;66.26;98599.72;5136813;28;20046;-58
2023/07/14 08:32:40;;;;;;;6.30;1.40;;;;;;;29.46;66.74;98604.88;5137319;28;20134;-58
2023/07/14 08:35:07;;;;;;;8.02;1.58;;;;;;;29.01;68.29;98591.34;5136722;27;20074;-60
2023/07/14 08:37:34;;;;;;;4.78;1.38;;;;;;;28.09;71.30;98589.59;5136805;28;20203;-57
2023/07/14 08:39:59;;;;;;;3.38;1.67;;;;;;;28.06;71.50;98594.22;5136772;28;20137;-59
2023/07/14 08:42:37;;;;;;;6.15;1.92;;;;;;;28.59;66.58;98608.97;5136870;28;20146;-59
2023/07/14 08:45:16;;;;;;;3.50;1.52;;;;;;;29.04;64.24;98604.44;5139959;27;20047;-59
2023/07/14 08:47:56;;;;;;;2.50;1.80;;;;;;;30.36;61.97;98608.69;5140263;27;20191;-59
2023/07/14 08:50:27;;;;;;;4.57;1.23;;;;;;;30.43;60.54;98613.06;5140715;28;20047;-59
2023/07/14 08:52:56;;;;;;;3.92;1.52;;;;;;;30.68;61.26;98623.31;5140100;28;20115;-57
2023/07/14 08:55:26;;;;;;;3.90;1.25;;;;;;;30.51;57.79;98618.97;5140106;27;20522;-59
2023/07/14 08:57:57;;;;;;;2.65;1.30;;;;;;;30.93;55.38;98627.16;5140025;27;20145;-59
2023/07/14 09:00:28;;;;;;;2.38;1.10;;;;;;;30.84;55.75;98635.16;5140091;28;20043;-58
2023/07/14 09:03:06;;;;;;;4.90;1.27;;;;;;;30.39;56.73;98635.94;5140168;27;20057;-59
2023/07/14 09:05:38;;;;;;;5.53;1.40;;;;;;;30.28;56.64;98635.16;5140113;28;20096;-60
2023/07/14 09:08:04;;;;;;;5.50;1.27;;;;;;;29.85;57.08;98626.84;5139867;27;20093;-58
2023/07/14 09:10:39;;;;;;;4.20;1.40;;;;;;;30.94;57.03;98633.59;5140148;28;20130;-61
2023/07/14 09:13:13;;;;;;;2.30;1.13;;;;;;;29.90;56.81;98624.03;5140785;27;20138;-58
2023/07/14 09:15:41;;;;;;;4.82;1.27;;;;;;;28.94;58.22;98630.50;5140352;28;20142;-60
2023/07/14 09:18:36;;;;;;;2.88;1.25;;;;;;;29.18;58.40;98632.97;5139948;28;20059;-57
2023/07/14 09:21:14;;;;;;;8.82;1.30;;;;;;;29.67;57.66;98623.19;5140060;27;20154;-58
2023/07/14 09:24:07;;;;;;;5.90;1.70;;;;;;;30.33;56.19;98632.34;5139664;28;20137;-58
2023/07/14 09:26:39;;;;;;;3.78;1.30;;;;;;;31.11;53.25;98633.53;5140181;27;20043;-58
2023/07/14 09:29:11;;;;;;;5.45;1.70;;;;;;;31.77;50.59;98628.91;5139767;28;20438;-58
2023/07/14 09:31:48;;;;;;;3.15;1.17;;;;;;;32.24;50.01;98623.22;5139967;28;20055;-58
2023/07/14 09:34:23;;;;;;;5.30;1.13;;;;;;;32.65;49.40;98625.22;5139986;28;20051;-59
2023/07/14 09:36:51;;;;;;;4.38;0.95;;;;;;;32.15;50.23;98632.03;5139476;28;20515;-59
2023/07/14 09:39:27;;;;;;;2.97;1.30;;;;;;;32.54;49.95;98620.41;5139832;28;20495;-58
2023/07/14 09:41:56;;;;;;;7.35;1.38;;;;;;;31.84;49.60;98624.75;5139528;28;20050;-56
2023/07/14 09:44:23;;;;;;;2.92;1.10;;;;;;;31.98;48.47;98622.88;5139598;28;20297;-55
2023/07/14 09:46:49;;;;;;;4.57;1.23;;;;;;;31.82;49.25;98624.50;5138961;28;20055;-57
2023/07/14 09:49:27;;;;;;;4.00;1.20;;;;;;;31.40;51.15;98607.47;5139101;27;20240;-59
2023/07/14 09:52:01;;;;;;;5.15;1.23;;;;;;;32.00;49.51;98632.41;5137314;28;20063;-56
2023/07/14 09:54:27;;;;;;;3.65;1.20;;;;;;;31.22;49.45;98633.50;5138987;28;20057;-56
2023/07/14 09:57:01;;;;;;;2.80;1.10;;;;;;;31.83;48.54;98624.00;5138419;27;20399;-56
2023/07/14 09:59:27;;;;;;;10.60;1.40;;;;;;;31.55;48.93;98631.84;5139271;28;20104;-62
2023/07/14 10:01:56;;;;;;;7.10;1.30;;;;;;;31.60;49.24;98626.16;5139616;27;20096;-63
2023/07/14 10:04:27;;;;;;;4.00;1.30;;;;;;;31.77;48.75;98626.09;5139119;28;20074;-59
2023/07/14 10:06:54;;;;;;;3.08;1.38;;;;;;;31.84;49.08;98631.19;5139614;28;20059;-62
2023/07/14 10:09:22;;;;;;;3.13;1.13;;;;;;;31.06;49.61;98625.84;5139153;28;20055;-57
2023/07/14 10:11:50;;;;;;;4.97;1.23;;;;;;;31.53;49.65;98631.63;5138868;28;20441;-60
2023/07/14 10:14:20;;;;;;;3.42;1.25;;;;;;;31.93;48.63;98621.63;5139155;28;20057;-60
2023/07/14 10:16:47;;;;;;;2.78;1.10;;;;;;;32.45;47.74;98619.97;5139041;28;20055;-61
2023/07/14 10:19:15;;;;;;;4.30;1.30;;;;;;;32.09;47.57;98626.44;5139086;28;20055;-58
2023/07/14 10:21:51;;;;;;;3.05;1.15;;;;;;;32.06;47.73;98618.22;5138835;28;20051;-64
2023/07/14 10:24:18;;;;;;;3.20;1.83;;;;;;;31.60;47.89;98623.34;5139323;28;20051;-57
2023/07/14 10:26:50;;;;;;;5.63;1.17;;;;;;;31.34;47.12;98626.53;5138730;27;20138;-55
2023/07/14 10:29:18;;;;;;;2.45;1.00;;;;;;;30.89;48.88;98621.00;5139106;28;20141;-58
2023/07/14 10:31:50;;;;;;;3.33;1.63;;;;;;;30.17;50.06;98631.00;5138475;28;20047;-62
2023/07/14 10:34:27;;;;;;;4.28;1.33;;;;;;;30.41;48.27;98607.13;5139235;28;20133;-57
2023/07/14 10:37:00;;;;;;;4.70;1.38;;;;;;;30.42;47.84;98626.44;5138751;28;20179;-56
2023/07/14 10:39:36;;;;;;;1.87;1.30;;;;;;;30.08;48.97;98619.16;5138458;28;20066;-60
2023/07/14 10:42:08;;;;;;;2.85;1.23;;;;;;;29.67;51.03;98620.38;5138883;27;20141;-59
2023/07/14 10:44:37;;;;;;;6.63;1.10;;;;;;;30.30;50.44;98630.53;5138547;28;20138;-59
2023/07/14 10:47:13;;;;;;;3.25;1.63;;;;;;;30.80;49.74;98618.44;5138769;28;20142;-59
2023/07/14 10:49:43;;;;;;;1.73;0.90;;;;;;;30.87;48.42;98620.75;5138356;27;20073;-58
2023/07/14 10:52:17;;;;;;;3.03;1.40;;;;;;;30.85;47.65;98617.63;5138801;27;20050;-59
2023/07/14 10:54:48;;;;;;;4.32;1.00;;;;;;;31.13;47.00;98619.66;5138531;27;20043;-58
2023/07/14 10:57:30;;;;;;;2.67;1.30;;;;;;;31.28;47.94;98613.66;5138624;28;20149;-58
2023/07/14 10:59:59;;;;;;;2.58;1.40;;;;;;;31.16;47.58;98622.22;5138900;28;20051;-59
2023/07/14 11:02:34;;;;;;;5.53;1.20;;;;;;;30.05;47.10;98626.59;5138287;27;20370;-60
2023/07/14 11:05:06;;;;;;;5.60;1.30;;;;;;;29.62;48.27;98617.53;5138365;27;20138;-53
2023/07/14 11:07:34;;;;;;;4.45;1.38;;;;;;;28.74;50.27;98601.16;5137811;27;20208;-63
2023/07/14 11:10:01;;;;;;;5.70;1.40;;;;;;;28.21;50.79;98602.53;5138576;28;20047;-62
2023/07/14 11:12:34;;;;;;;2.22;1.33;;;;;;;28.27;51.01;98596.94;5137825;27;20066;-61
2023/07/14 11:15:15;;;;;;;4.70;1.27;;;;;;;28.63;50.18;98605.97;5138375;27;20051;-65
2023/07/14 11:17:51;;;;;;;2.85;1.10;;;;;;;28.60;50.37;98608.50;5138390;28;20138;-60
2023/07/14 11:20:23;;;;;;;1.75;1.30;;;;;;;28.46;51.17;98606.59;5138405;28;20111;-64
2023/07/14 11:23:00;;;;;;;1.98;1.30;;;;;;;28.17;51.95;98593.53;5138337;28;20047;-61
2023/07/14 11:25:34;;;;;;;2.58;1.25;;;;;;;27.89;52.88;98594.06;5137898;28;20055;-59
2023/07/14 11:28:07;;;;;;;5.22;1.50;;;;;;;27.82;52.58;98590.88;5138234;28;20051;-60
2023/07/14 11:30:37;;;;;;;2.30;1.25;;;;;;;27.96;52.09;98592.84;5137839;28;20097;-57
2023/07/14 11:33:16;;;;;;;14.73;1.50;;;;;;;28.22;51.96;98592.00;5138138;27;20085;-57
2023/07/14 11:35:50;;;;;;;4.68;1.30;;;;;;;28.50;50.82;98587.41;5138150;27;20139;-61